Time;durP1;ratioP1;P1;durP2;ratioP2;P2;SDS_P1;SDS_P2;PMS_P1;PMS_P2;Temp;Humidity;BMP_temperature;BMP_pressure;BME280_temperature;BME280_humidity;BME280_pressure;Samples;Min_cycle;Max_cycle;Signal;HPM_P1;HPM_P2
2023/04/10 00:01:04;;;;;;;;;;;;;;;22.06;26.28;98069.16;4998267;28;1217;-74
2023/04/10 00:03:30;;;;;;;;;;;;;;;22.41;25.71;98072.28;5014429;28;1034;-73
2023/04/10 00:05:56;;;;;;;;;;;;;;;22.44;25.49;98073.44;4998378;28;1021;-74
2023/04/10 00:08:22;;;;;;;;;;;;;;;21.88;26.06;98068.06;4998071;28;985;-74
2023/04/10 00:10:47;;;;;;;;;;;;;;;21.58;26.80;98067.22;5010179;28;1188;-74
2023/04/10 00:13:13;;;;;;;;;;;;;;;21.52;26.71;98057.66;5034301;28;1055;-74
2023/04/10 00:15:39;;;;;;;;;;;;;;;21.57;26.67;98054.31;5017544;28;1906;-74
2023/04/10 00:18:05;;;;;;;;;;;;;;;22.11;26.14;98059.34;5014019;28;1258;-74
2023/04/10 00:20:30;;;;;;;;;;;;;;;22.38;25.45;98063.88;5014036;28;949;-74
2023/04/10 00:22:56;;;;;;;;;;;;;;;22.61;25.17;98063.59;4995828;28;1017;-74
2023/04/10 00:25:25;;;;;;;;;;;;;;;21.88;25.98;98051.88;4978245;28;1003;-74
2023/04/10 00:27:51;;;;;;;;;;;;;;;21.78;26.12;98052.94;4994768;28;985;-74
2023/04/10 00:30:17;;;;;;;;;;;;;;;21.70;26.35;98051.53;4994457;28;1253;-74
2023/04/10 00:32:42;;;;;;;;;;;;;;;21.74;26.16;98055.88;4994625;28;1007;-74
2023/04/10 00:35:08;;;;;;;;;;;;;;;22.19;25.61;98055.09;4978208;28;1981;-74
2023/04/10 00:37:34;;;;;;;;;;;;;;;22.35;25.65;98046.53;4996762;28;965;-74
2023/04/10 00:40:00;;;;;;;;;;;;;;;22.38;25.35;98044.81;4997999;28;978;-74
2023/04/10 00:42:26;;;;;;;;;;;;;;;21.74;26.14;98044.53;4997769;28;1120;-74
2023/04/10 00:44:51;;;;;;;;;;;;;;;21.52;26.71;98046.34;4997589;28;1006;-73
2023/04/10 00:47:17;;;;;;;;;;;;;;;21.39;26.50;98043.41;5013739;28;1042;-74
2023/04/10 00:49:42;;;;;;;;;;;;;;;21.46;26.70;98036.81;5009441;28;1321;-75
2023/04/10 00:52:08;;;;;;;;;;;;;;;21.99;26.10;98035.38;5017112;28;1302;-74
2023/04/10 00:54:35;;;;;;;;;;;;;;;22.16;25.56;98032.50;5016870;28;1894;-74
2023/04/10 00:57:01;;;;;;;;;;;;;;;21.96;25.77;98029.78;5000520;28;1231;-73
2023/04/10 00:59:27;;;;;;;;;;;;;;;21.69;26.11;98022.44;5017378;28;1082;-74
2023/04/10 01:01:53;;;;;;;;;;;;;;;21.35;26.47;98019.28;5017314;28;985;-74
2023/04/10 01:04:19;;;;;;;;;;;;;;;21.32;26.84;98024.59;5000700;28;1702;-74
2023/04/10 01:06:53;;;;;;;;;;;;;;;21.95;25.85;98016.88;5017393;28;999;-74
2023/04/10 01:09:33;;;;;;;;;;;;;;;21.90;25.75;98014.59;5033887;28;1302;-74
2023/04/10 01:12:11;;;;;;;;;;;;;;;22.00;25.75;98007.84;5037106;28;1000;-74
2023/04/10 01:14:48;;;;;;;;;;;;;;;21.70;25.75;98012.69;5036783;28;1963;-73
2023/04/10 01:17:14;;;;;;;;;;;;;;;21.66;26.05;98011.19;5036590;28;1056;-73
2023/04/10 01:19:50;;;;;;;;;;;;;;;21.72;26.23;98010.22;5053072;28;957;-75
2023/04/10 01:22:16;;;;;;;;;;;;;;;22.24;25.43;98012.03;5037264;28;1159;-74
2023/04/10 01:24:47;;;;;;;;;;;;;;;22.15;25.51;98013.94;5057404;28;1315;-74
2023/04/10 01:27:16;;;;;;;;;;;;;;;22.21;25.14;98010.09;5040682;28;1375;-74
2023/04/10 01:29:44;;;;;;;;;;;;;;;21.81;25.51;98007.56;5068840;28;1000;-74
2023/04/10 01:32:14;;;;;;;;;;;;;;;21.63;25.69;97995.09;5061743;28;1216;-74
2023/04/10 01:34:42;;;;;;;;;;;;;;;21.84;25.77;98006.63;5061286;28;1902;-74
2023/04/10 01:37:09;;;;;;;;;;;;;;;22.38;24.92;98013.63;5061880;28;1421;-74
2023/04/10 01:39:35;;;;;;;;;;;;;;;22.09;25.62;98010.81;5078433;28;973;-73
2023/04/10 01:42:02;;;;;;;;;;;;;;;21.70;25.88;98001.34;5040553;28;1213;-74
2023/04/10 01:44:43;;;;;;;;;;;;;;;21.52;25.82;98010.34;5025490;28;1147;-74
2023/04/10 01:47:09;;;;;;;;;;;;;;;21.45;26.03;98004.88;5023983;28;1136;-74
2023/04/10 01:49:36;;;;;;;;;;;;;;;22.00;25.82;98008.63;5040284;28;1276;-73
2023/04/10 01:52:03;;;;;;;;;;;;;;;21.91;25.80;98007.69;5007901;28;1134;-74
2023/04/10 01:54:30;;;;;;;;;;;;;;;21.94;25.45;98004.75;5023353;28;1906;-74
2023/04/10 01:56:57;;;;;;;;;;;;;;;22.05;25.22;97999.56;5023668;28;1043;-74
2023/04/10 01:59:23;;;;;;;;;;;;;;;21.80;25.43;98000.28;5039607;28;1277;-74
2023/04/10 02:01:48;;;;;;;;;;;;;;;21.51;25.83;97993.81;5023410;28;1230;-74
2023/04/10 02:04:15;;;;;;;;;;;;;;;21.64;26.00;97988.19;5037460;28;1094;-75
2023/04/10 02:06:45;;;;;;;;;;;;;;;21.93;25.84;97996.72;5007097;28;1149;-74
2023/04/10 02:09:14;;;;;;;;;;;;;;;22.28;25.02;97998.56;5039980;28;921;-74
2023/04/10 02:11:39;;;;;;;;;;;;;;;22.11;25.25;97994.19;5039972;28;953;-74
2023/04/10 02:14:07;;;;;;;;;;;;;;;21.88;25.62;97994.44;5074975;28;1082;-74
2023/04/10 02:16:32;;;;;;;;;;;;;;;21.40;25.96;97993.25;5061200;28;1914;-74
2023/04/10 02:18:58;;;;;;;;;;;;;;;21.61;25.67;97984.22;5061123;28;1272;-74
2023/04/10 02:21:23;;;;;;;;;;;;;;;22.11;25.31;97988.50;5077696;28;941;-74
2023/04/10 02:23:49;;;;;;;;;;;;;;;22.24;24.95;97975.19;5060770;28;1137;-74
2023/04/10 02:26:15;;;;;;;;;;;;;;;22.24;25.16;97975.19;5060519;28;932;-74
2023/04/10 02:28:40;;;;;;;;;;;;;;;21.84;25.70;97966.97;5060638;28;1317;-74
2023/04/10 02:31:06;;;;;;;;;;;;;;;21.75;25.70;97964.00;5060817;28;1062;-74
2023/04/10 02:33:32;;;;;;;;;;;;;;;21.65;25.48;97970.75;5060202;28;1104;-74
2023/04/10 02:35:59;;;;;;;;;;;;;;;22.00;25.10;97963.28;5059036;28;1988;-74
2023/04/10 02:38:25;;;;;;;;;;;;;;;22.01;25.30;97959.22;5059350;28;964;-74
2023/04/10 02:40:51;;;;;;;;;;;;;;;22.10;25.19;97972.72;5059155;28;1356;-74
2023/04/10 02:43:17;;;;;;;;;;;;;;;21.72;25.84;97970.56;5059599;28;1089;-74
2023/04/10 02:45:44;;;;;;;;;;;;;;;21.61;25.71;97970.06;5059301;28;1361;-74
2023/04/10 02:48:13;;;;;;;;;;;;;;;21.72;25.71;97979.06;5042946;28;1211;-74
2023/04/10 02:50:44;;;;;;;;;;;;;;;21.96;25.55;97973.13;5042753;28;1049;-74
2023/04/10 02:53:14;;;;;;;;;;;;;;;21.83;25.47;97970.28;5043364;28;1546;-74
2023/04/10 02:55:40;;;;;;;;;;;;;;;22.01;25.44;97969.75;5042223;28;1919;-73
2023/04/10 02:58:06;;;;;;;;;;;;;;;21.77;25.72;97966.41;5042645;28;970;-74
2023/04/10 03:00:32;;;;;;;;;;;;;;;21.50;25.83;97969.53;5042574;28;1304;-73
2023/04/10 03:03:03;;;;;;;;;;;;;;;21.78;25.63;97962.31;5059959;28;868;-74
2023/04/10 03:05:37;;;;;;;;;;;;;;;22.35;24.92;97964.31;5058905;28;1083;-74
2023/04/10 03:08:02;;;;;;;;;;;;;;;22.01;25.24;97961.25;5075493;28;843;-74
2023/04/10 03:10:28;;;;;;;;;;;;;;;21.80;25.61;97966.28;5076607;28;1461;-74
2023/04/10 03:12:54;;;;;;;;;;;;;;;21.65;25.88;97962.25;5060150;28;1155;-74
2023/04/10 03:15:20;;;;;;;;;;;;;;;21.58;25.95;97968.13;5041876;28;1906;-74
2023/04/10 03:17:46;;;;;;;;;;;;;;;21.71;25.77;97971.81;5076485;28;1197;-75
2023/04/10 03:20:12;;;;;;;;;;;;;;;22.28;25.33;97956.03;5076254;28;1503;-74
2023/04/10 03:22:38;;;;;;;;;;;;;;;22.22;25.29;97951.34;5076442;28;1300;-74
2023/04/10 03:25:06;;;;;;;;;;;;;;;22.06;25.18;97955.03;5060195;28;1491;-74
2023/04/10 03:27:33;;;;;;;;;;;;;;;22.07;25.28;97956.63;5041984;28;1694;-74
2023/04/10 03:30:00;;;;;;;;;;;;;;;22.06;25.54;97949.38;5076404;28;930;-74
2023/04/10 03:32:27;;;;;;;;;;;;;;;21.66;25.89;97944.03;5076192;28;988;-75
2023/04/10 03:34:53;;;;;;;;;;;;;;;21.58;26.08;97949.09;5076222;28;1967;-74
2023/04/10 03:37:19;;;;;;;;;;;;;;;21.61;25.88;97955.91;5059258;28;1260;-74
2023/04/10 03:39:44;;;;;;;;;;;;;;;21.81;25.71;97942.41;5077162;28;941;-74
2023/04/10 03:42:12;;;;;;;;;;;;;;;21.89;25.85;97940.16;5075692;28;1266;-74
2023/04/10 03:44:39;;;;;;;;;;;;;;;21.63;25.95;97947.75;5075191;28;1137;-75
2023/04/10 03:47:05;;;;;;;;;;;;;;;21.50;26.11;97941.22;5059047;28;1395;-74
2023/04/10 03:49:31;;;;;;;;;;;;;;;21.75;25.86;97935.69;5059577;28;1665;-74
2023/04/10 03:52:03;;;;;;;;;;;;;;;21.58;26.39;97931.31;5060006;28;1161;-74
2023/04/10 03:54:28;;;;;;;;;;;;;;;21.74;25.83;97934.09;5041411;28;1964;-74
2023/04/10 03:56:56;;;;;;;;;;;;;;;22.21;25.18;97939.22;5075801;28;1505;-74
2023/04/10 03:59:21;;;;;;;;;;;;;;;22.11;25.26;97937.50;5075350;28;1050;-74
2023/04/10 04:01:47;;;;;;;;;;;;;;;22.33;25.14;97937.69;5075605;28;985;-74
2023/04/10 04:04:12;;;;;;;;;;;;;;;21.73;25.82;97949.50;5090753;28;1333;-74
2023/04/10 04:06:56;;;;;;;;;;;;;;;21.63;25.88;97950.59;5059998;28;944;-74
2023/04/10 04:09:42;;;;;;;;;;;;;;;21.75;25.80;97949.84;5014316;28;1052;-74
2023/04/10 04:12:34;;;;;;;;;;;;;;;22.30;25.24;97956.38;4955845;29;1058;-74
2023/04/10 04:15:08;;;;;;;;;;;;;;;22.39;24.91;97950.03;4940039;29;1914;-75
2023/04/10 04:17:52;;;;;;;;;;;;;;;21.70;25.93;97958.09;4955737;29;1025;-73
2023/04/10 04:20:40;;;;;;;;;;;;;;;21.94;25.44;97958.63;4940266;29;1240;-73
2023/04/10 04:23:13;;;;;;;;;;;;;;;21.44;26.21;97960.00;4956294;28;1280;-73
2023/04/10 04:26:08;;;;;;;;;;;;;;;21.94;25.69;97959.44;4898522;29;1300;-74
2023/04/10 04:28:50;;;;;;;;;;;;;;;22.10;25.65;97958.56;4876957;29;1209;-74
2023/04/10 04:31:34;;;;;;;;;;;;;;;22.16;25.43;97959.63;4861355;29;958;-73
2023/04/10 04:34:38;;;;;;;;;;;;;;;21.90;25.92;97957.94;4852093;29;1907;-74
2023/04/10 04:37:11;;;;;;;;;;;;;;;21.85;25.50;97960.06;4838959;29;1180;-74
2023/04/10 04:39:46;;;;;;;;;;;;;;;22.00;25.53;97959.66;4824647;29;1191;-74
2023/04/10 04:42:11;;;;;;;;;;;;;;;21.87;25.73;97970.19;4840026;29;1001;-75
2023/04/10 04:44:37;;;;;;;;;;;;;;;21.66;26.12;97972.38;4809477;29;968;-75
2023/04/10 04:47:08;;;;;;;;;;;;;;;21.73;26.21;97965.69;4835968;29;980;-74
2023/04/10 04:49:52;;;;;;;;;;;;;;;21.25;26.76;97964.53;4873758;29;1010;-74
2023/04/10 04:52:38;;;;;;;;;;;;;;;21.87;25.92;97965.31;4913155;29;990;-74
2023/04/10 04:55:12;;;;;;;;;;;;;;;22.50;24.93;97972.41;4912360;29;1989;-74
2023/04/10 04:58:16;;;;;;;;;;;;;;;22.23;25.37;97970.78;4985676;28;1073;-75
2023/04/10 05:01:00;;;;;;;;;;;;;;;21.97;25.89;97966.25;4955476;29;917;-75
2023/04/10 05:03:44;;;;;;;;;;;;;;;21.58;26.21;97962.47;4988111;28;1684;-74
2023/04/10 05:06:33;;;;;;;;;;;;;;;21.55;26.38;97960.50;5006449;28;1041;-74
2023/04/10 05:08:58;;;;;;;;;;;;;;;22.14;25.77;97959.28;5010140;28;1006;-74
2023/04/10 05:11:50;;;;;;;;;;;;;;;22.09;25.45;97962.66;4974639;28;987;-74
2023/04/10 05:14:38;;;;;;;;;;;;;;;22.39;25.19;97966.25;5001321;28;1911;-74
2023/04/10 05:17:40;;;;;;;;;;;;;;;22.02;25.79;97960.00;4963163;28;1017;-74
2023/04/10 05:20:35;;;;;;;;;;;;;;;21.73;25.82;97968.53;4974450;28;1110;-74
2023/04/10 05:23:15;;;;;;;;;;;;;;;21.80;26.03;97966.28;4974295;28;1245;-74
2023/04/10 05:25:59;;;;;;;;;;;;;;;22.44;25.39;97963.66;4960850;28;1001;-74
2023/04/10 05:28:51;;;;;;;;;;;;;;;22.22;25.33;97969.16;4942689;28;1039;-73
2023/04/10 05:31:46;;;;;;;;;;;;;;;21.95;25.82;97954.56;4921710;29;1050;-74
2023/04/10 05:34:32;;;;;;;;;;;;;;;21.52;26.45;97967.06;4948931;29;1977;-74
2023/04/10 05:37:11;;;;;;;;;;;;;;;21.49;26.39;97963.09;4966094;28;1363;-74
2023/04/10 05:39:45;;;;;;;;;;;;;;;21.55;26.65;97966.16;4951612;29;1457;-74
2023/04/10 05:42:31;;;;;;;;;;;;;;;22.28;25.26;97963.75;4933494;29;1016;-74
2023/04/10 05:45:22;;;;;;;;;;;;;;;22.28;25.33;97967.38;4891214;29;1049;-73
2023/04/10 05:48:08;;;;;;;;;;;;;;;21.67;26.02;97964.66;4879249;29;1085;-76
2023/04/10 05:50:54;;;;;;;;;;;;;;;21.76;25.92;97971.28;4900613;29;1000;-75
2023/04/10 05:53:38;;;;;;;;;;;;;;;21.56;26.32;97962.91;4930231;29;953;-75
2023/04/10 05:56:23;;;;;;;;;;;;;;;22.10;25.54;97962.22;4932805;29;1910;-75
2023/04/10 05:59:07;;;;;;;;;;;;;;;22.50;25.06;97955.38;4930170;29;1107;-76
2023/04/10 06:01:53;;;;;;;;;;;;;;;21.96;25.72;97961.81;4916511;29;1211;-75
2023/04/10 06:04:20;;;;;;;;;;;;;;;21.70;26.07;97967.38;4932790;29;898;-76
2023/04/10 06:06:50;;;;;;;;;;;;;;;21.52;26.27;97962.22;4970379;28;1232;-75
2023/04/10 06:09:15;;;;;;;;;;;;;;;21.79;26.05;97959.03;4991448;28;1147;-77
2023/04/10 06:11:41;;;;;;;;;;;;;;;22.16;25.58;97970.97;5027821;28;995;-76
2023/04/10 06:14:07;;;;;;;;;;;;;;;22.45;25.07;97975.78;5056393;28;989;-75
2023/04/10 06:16:42;;;;;;;;;;;;;;;21.79;26.29;97973.19;5039689;28;1914;-75
2023/04/10 06:19:07;;;;;;;;;;;;;;;21.64;26.21;97966.34;5039624;28;1204;-75
2023/04/10 06:21:34;;;;;;;;;;;;;;;21.49;26.31;97968.75;5039920;28;1398;-76
2023/04/10 06:24:00;;;;;;;;;;;;;;;21.57;26.30;97975.03;5039508;28;1201;-75
2023/04/10 06:26:26;;;;;;;;;;;;;;;21.70;26.33;97973.03;5076047;28;1070;-75
2023/04/10 06:28:51;;;;;;;;;;;;;;;21.76;26.03;97976.94;5059464;28;1004;-75
2023/04/10 06:31:23;;;;;;;;;;;;;;;21.57;26.63;97972.19;5067899;28;1309;-75
2023/04/10 06:33:49;;;;;;;;;;;;;;;22.19;25.72;97984.25;5054054;28;1624;-75
2023/04/10 06:36:15;;;;;;;;;;;;;;;22.25;25.50;97982.44;5061670;28;1902;-75
2023/04/10 06:38:46;;;;;;;;;;;;;;;22.13;25.83;97994.53;5050918;28;1318;-75
2023/04/10 06:41:12;;;;;;;;;;;;;;;22.02;25.74;97982.66;5055601;28;1490;-74
2023/04/10 06:43:38;;;;;;;;;;;;;;;21.59;26.12;97995.19;5061146;28;1520;-74
2023/04/10 06:46:04;;;;;;;;;;;;;;;21.44;26.56;97997.59;5064017;28;1580;-75
2023/04/10 06:48:30;;;;;;;;;;;;;;;21.89;26.32;98007.34;5048638;28;1521;-75
2023/04/10 06:50:55;;;;;;;;;;;;;;;22.12;25.53;98001.44;5049566;28;1591;-74
2023/04/10 06:53:21;;;;;;;;;;;;;;;22.10;25.90;98006.75;5053393;28;1553;-74
2023/04/10 06:55:47;;;;;;;;;;;;;;;22.12;25.64;98009.94;5051307;28;1991;-74
2023/04/10 06:58:12;;;;;;;;;;;;;;;21.67;26.29;98007.13;5033304;28;1518;-75
2023/04/10 07:00:38;;;;;;;;;;;;;;;21.82;26.07;98014.78;5052703;28;1573;-74
2023/04/10 07:03:04;;;;;;;;;;;;;;;21.47;26.56;98010.09;5064326;28;1531;-74
2023/04/10 07:05:29;;;;;;;;;;;;;;;21.65;26.39;98010.38;5058731;28;1419;-74
2023/04/10 07:07:55;;;;;;;;;;;;;;;22.17;26.00;98000.88;5042032;28;974;-74
2023/04/10 07:10:21;;;;;;;;;;;;;;;22.24;25.50;98006.38;5075538;28;1223;-74
2023/04/10 07:12:46;;;;;;;;;;;;;;;22.21;25.42;98007.25;5075304;28;937;-74
2023/04/10 07:15:12;;;;;;;;;;;;;;;21.79;26.24;97998.69;5077083;28;1910;-74
2023/04/10 07:17:37;;;;;;;;;;;;;;;21.67;26.04;97996.59;5061215;28;928;-74
2023/04/10 07:20:03;;;;;;;;;;;;;;;22.03;26.21;98007.75;5057264;28;958;-74
2023/04/10 07:22:30;;;;;;;;;;;;;;;22.19;25.87;98006.91;5056141;28;1639;-74
2023/04/10 07:24:56;;;;;;;;;;;;;;;22.22;25.64;98005.22;5056375;28;882;-73
2023/04/10 07:27:23;;;;;;;;;;;;;;;21.89;25.91;98013.00;5057624;28;954;-74
2023/04/10 07:29:49;;;;;;;;;;;;;;;21.53;26.32;98002.63;5039651;28;1157;-74
2023/04/10 07:32:15;;;;;;;;;;;;;;;21.61;26.17;98015.38;5072991;28;997;-74
2023/04/10 07:34:41;;;;;;;;;;;;;;;21.44;26.36;98005.28;5056000;28;1902;-75
2023/04/10 07:37:06;;;;;;;;;;;;;;;22.19;25.77;98006.91;5034947;28;977;-74
2023/04/10 07:39:32;;;;;;;;;;;;;;;22.03;26.27;98013.41;5034679;28;1057;-74
2023/04/10 07:41:57;;;;;;;;;;;;;;;22.17;25.84;98017.88;5018518;28;1114;-74
2023/04/10 07:44:25;;;;;;;;;;;;;;;21.70;26.27;98018.34;5034784;28;1010;-74
2023/04/10 07:46:51;;;;;;;;;;;;;;;21.65;26.52;98016.06;5034927;28;1234;-74
2023/04/10 07:49:16;;;;;;;;;;;;;;;21.57;26.35;98009.00;5051171;28;973;-74
2023/04/10 07:51:42;;;;;;;;;;;;;;;22.03;26.34;98012.63;5051256;28;981;-74
2023/04/10 07:54:07;;;;;;;;;;;;;;;22.09;26.14;98005.16;5017871;28;1301;-74
2023/04/10 07:56:33;;;;;;;;;;;;;;;22.12;26.12;97997.81;5034462;28;1971;-73
2023/04/10 07:58:59;;;;;;;;;;;;;;;21.82;26.10;97999.84;5018231;28;1179;-74
2023/04/10 08:01:25;;;;;;;;;;;;;;;21.87;25.87;97992.84;5018090;28;1249;-73
2023/04/10 08:03:51;;;;;;;;;;;;;;;21.70;26.54;97995.69;5017985;28;963;-75
2023/04/10 08:06:16;;;;;;;;;;;;;;;22.16;25.85;97993.63;5018024;28;1251;-74
2023/04/10 08:08:42;;;;;;;;;;;;;;;22.43;25.60;97989.59;5032539;28;1068;-74
2023/04/10 08:11:26;;;;;;;;;;;;;;;22.40;25.56;97991.31;5021098;28;1104;-74
2023/04/10 08:13:56;;;;;;;;;;;;;;;21.75;26.22;97995.16;5062094;28;1752;-74
2023/04/10 08:16:24;;;;;;;;;;;;;;;21.61;26.61;97989.91;5047526;28;1977;-74
2023/04/10 08:18:50;;;;;;;;;;;;;;;21.53;26.48;97982.81;5063542;28;1572;-76
2023/04/10 08:21:15;;;;;;;;;;;;;;;21.68;26.66;97983.22;5031348;28;1813;-74
2023/04/10 08:23:41;;;;;;;;;;;;;;;22.31;25.66;97983.47;5048432;28;1676;-74
2023/04/10 08:26:07;;;;;;;;;;;;;;;22.39;25.71;97983.28;5054133;28;1510;-74
2023/04/10 08:28:32;;;;;;;;;;;;;;;22.17;26.02;97978.22;5047587;28;1540;-74
2023/04/10 08:30:58;;;;;;;;;;;;;;;21.65;26.50;97970.75;5024918;28;1354;-74
2023/04/10 08:33:23;;;;;;;;;;;;;;;21.59;26.56;97981.03;5025918;28;1891;-74
2023/04/10 08:35:49;;;;;;;;;;;;;;;21.56;26.54;97979.09;5025686;28;2001;-75
2023/04/10 08:38:14;;;;;;;;;;;;;;;22.16;26.18;97976.63;5025570;28;1339;-74
2023/04/10 08:40:40;;;;;;;;;;;;;;;22.28;26.06;97990.06;5059778;28;1657;-74
2023/04/10 08:43:06;;;;;;;;;;;;;;;21.74;26.67;97987.91;5063295;28;1599;-74
2023/04/10 08:45:31;;;;;;;;;;;;;;;21.78;26.51;97985.78;5069016;28;1512;-75
2023/04/10 08:47:57;;;;;;;;;;;;;;;21.86;26.16;97986.34;5073541;28;1433;-75
2023/04/10 08:50:22;;;;;;;;;;;;;;;21.57;26.62;97975.03;5073213;28;994;-73
2023/04/10 08:52:49;;;;;;;;;;;;;;;22.01;26.61;97975.41;5090202;28;937;-74
2023/04/10 08:55:15;;;;;;;;;;;;;;;22.21;25.84;97967.56;5090268;28;1914;-74
2023/04/10 08:57:41;;;;;;;;;;;;;;;22.31;25.93;97966.47;5073592;28;948;-74
2023/04/10 09:00:07;;;;;;;;;;;;;;;21.95;26.06;97961.00;5089905;28;1003;-74
2023/04/10 09:02:33;;;;;;;;;;;;;;;21.78;26.46;97962.31;5056535;28;1168;-74
2023/04/10 09:04:59;;;;;;;;;;;;;;;21.29;27.28;97959.56;5056608;28;1137;-74
2023/04/10 09:07:25;;;;;;;;;;;;;;;21.76;26.69;97954.28;5107673;28;943;-74
2023/04/10 09:09:51;;;;;;;;;;;;;;;22.54;25.58;97950.41;5090996;28;1242;-74
2023/04/10 09:12:16;;;;;;;;;;;;;;;22.41;25.82;97958.09;5075653;28;936;-74
2023/04/10 09:14:42;;;;;;;;;;;;;;;22.20;26.17;97953.84;5075241;28;1902;-74
2023/04/10 09:17:11;;;;;;;;;;;;;;;21.73;26.47;97943.84;5107704;28;912;-74
2023/04/10 09:19:36;;;;;;;;;;;;;;;21.60;26.72;97945.81;5074164;28;1177;-74
2023/04/10 09:22:02;;;;;;;;;;;;;;;21.53;27.20;97934.69;5074314;28;1128;-73
2023/04/10 09:24:27;;;;;;;;;;;;;;;22.32;26.12;97939.69;5108138;28;1054;-75
2023/04/10 09:26:53;;;;;;;;;;;;;;;22.35;26.00;97927.47;5091074;28;1228;-74
2023/04/10 09:29:19;;;;;;;;;;;;;;;22.24;25.86;97932.69;5096254;28;1181;-73
2023/04/10 09:31:44;;;;;;;;;;;;;;;21.91;26.31;97925.53;5096758;28;961;-74
2023/04/10 09:34:14;;;;;;;;;;;;;;;21.82;26.49;97924.16;5079602;28;957;-74
2023/04/10 09:36:43;;;;;;;;;;;;;;;21.56;26.94;97914.00;5096636;28;1909;-74
2023/04/10 09:39:10;;;;;;;;;;;;;;;22.30;26.18;97930.88;5067020;28;1662;-74
2023/04/10 09:41:46;;;;;;;;;;;;;;;22.54;25.59;97916.38;5047232;28;1663;-74
2023/04/10 09:44:11;;;;;;;;;;;;;;;22.25;26.23;97920.09;5063578;28;1559;-74
2023/04/10 09:46:37;;;;;;;;;;;;;;;22.11;26.33;97912.00;5071212;28;1485;-75
2023/04/10 09:49:06;;;;;;;;;;;;;;;21.91;26.50;97908.53;5076807;28;984;-74
2023/04/10 09:51:35;;;;;;;;;;;;;;;21.69;27.10;97909.16;5060762;28;1490;-74
2023/04/10 09:54:01;;;;;;;;;;;;;;;21.47;27.49;97903.31;5060279;28;945;-74
2023/04/10 09:56:30;;;;;;;;;;;;;;;21.45;27.36;97905.78;5057241;28;1968;-74
2023/04/10 09:58:56;;;;;;;;;;;;;;;22.12;26.73;97907.91;5048213;28;1479;-74
2023/04/10 10:01:22;;;;;;;;;;;;;;;22.41;26.13;97909.91;5005588;28;1500;-74
2023/04/10 10:03:47;;;;;;;;;;;;;;;22.60;25.88;97903.22;5036415;28;1529;-74
2023/04/10 10:06:13;;;;;;;;;;;;;;;22.22;26.29;97898.31;5019764;28;1323;-74
2023/04/10 10:08:38;;;;;;;;;;;;;;;21.93;26.63;97906.06;5016032;28;1462;-74
2023/04/10 10:11:06;;;;;;;;;;;;;;;21.65;27.13;97902.78;5016324;28;1174;-74
2023/04/10 10:13:36;;;;;;;;;;;;;;;21.50;27.34;97887.44;5032701;28;909;-75
2023/04/10 10:16:02;;;;;;;;;;;;;;;21.35;27.82;97889.06;5056207;28;2016;-74
2023/04/10 10:18:36;;;;;;;;;;;;;;;21.89;27.09;97894.81;5056066;28;991;-74
2023/04/10 10:21:02;;;;;;;;;;;;;;;21.94;26.86;97884.97;5039512;28;1237;-74
2023/04/10 10:23:28;;;;;;;;;;;;;;;22.05;26.73;97879.78;5039540;28;1285;-74
2023/04/10 10:25:53;;;;;;;;;;;;;;;21.90;26.99;97884.28;5039572;28;1182;-76
2023/04/10 10:28:19;;;;;;;;;;;;;;;21.62;27.24;97878.22;5056169;28;933;-75
2023/04/10 10:30:45;;;;;;;;;;;;;;;21.40;27.60;97891.38;5039195;28;965;-75
2023/04/10 10:33:10;;;;;;;;;;;;;;;21.92;27.20;97876.16;5039134;28;1037;-75
2023/04/10 10:35:36;;;;;;;;;;;;;;;22.32;26.48;97882.22;5023109;28;1979;-75
2023/04/10 10:38:04;;;;;;;;;;;;;;;22.10;26.85;97870.72;5027370;28;1509;-75
2023/04/10 10:40:45;;;;;;;;;;;;;;;22.22;26.57;97867.13;5069676;28;1541;-76
2023/04/10 10:43:12;;;;;;;;;;;;;;;21.84;26.91;97861.38;5074167;28;1543;-75
2023/04/10 10:45:58;;;;;;;;;;;;;;;21.65;26.95;97868.03;5060119;28;910;-75
2023/04/10 10:48:23;;;;;;;;;;;;;;;21.72;26.77;97854.47;5075297;28;950;-75
2023/04/10 10:50:55;;;;;;;;;;;;;;;21.47;27.37;97851.56;5075373;28;975;-75
2023/04/10 10:53:37;;;;;;;;;;;;;;;21.95;27.11;97846.91;5059157;28;1021;-75
2023/04/10 10:56:17;;;;;;;;;;;;;;;22.23;26.47;97846.06;5058661;28;1902;-75
2023/04/10 10:58:47;;;;;;;;;;;;;;;21.94;26.90;97834.00;5075668;28;1127;-75
2023/04/10 11:01:12;;;;;;;;;;;;;;;21.77;27.04;97836.13;5058558;28;1057;-75
2023/04/10 11:03:38;;;;;;;;;;;;;;;21.39;27.94;97827.50;5069666;28;1705;-75
2023/04/10 11:06:06;;;;;;;;;;;;;;;21.43;27.69;97822.56;5080636;28;1555;-75
2023/04/10 11:08:31;;;;;;;;;;;;;;;21.63;27.34;97826.00;5047202;28;1455;-75
2023/04/10 11:11:09;;;;;;;;;;;;;;;22.40;26.35;97821.22;5081646;28;1558;-75
2023/04/10 11:13:35;;;;;;;;;;;;;;;22.31;26.51;97824.72;5078375;28;1492;-75
2023/04/10 11:16:01;;;;;;;;;;;;;;;22.15;26.75;97822.03;5082145;28;1967;-75
2023/04/10 11:18:49;;;;;;;;;;;;;;;21.78;27.52;97821.50;5081377;28;1518;-75
2023/04/10 11:21:17;;;;;;;;;;;;;;;21.54;27.64;97817.38;5075149;28;1409;-75
2023/04/10 11:23:49;;;;;;;;;;;;;;;21.53;27.39;97815.78;5095177;28;1107;-75
2023/04/10 11:26:42;;;;;;;;;;;;;;;21.70;27.42;97814.47;5094832;28;1002;-76
2023/04/10 11:29:16;;;;;;;;;;;;;;;22.21;26.73;97816.56;5095106;28;1214;-75
2023/04/10 11:31:45;;;;;;;;;;;;;;;22.32;26.77;97809.31;5094900;28;1025;-75
2023/04/10 11:34:11;;;;;;;;;;;;;;;22.01;27.04;97805.44;5094913;28;1001;-76
2023/04/10 11:36:40;;;;;;;;;;;;;;;21.70;27.32;97808.78;5094952;28;1910;-75
2023/04/10 11:39:12;;;;;;;;;;;;;;;21.58;27.37;97806.75;5094774;28;1229;-75
2023/04/10 11:41:38;;;;;;;;;;;;;;;21.70;27.49;97810.84;5090491;28;1585;-75
2023/04/10 11:44:04;;;;;;;;;;;;;;;22.19;26.91;97808.53;5074353;28;1545;-75
2023/04/10 11:46:30;;;;;;;;;;;;;;;22.20;26.92;97809.31;5093192;28;1492;-75
2023/04/10 11:48:57;;;;;;;;;;;;;;;22.19;27.03;97811.38;5094392;28;1490;-74
2023/04/10 11:51:22;;;;;;;;;;;;;;;22.63;26.30;97805.88;5084048;28;1504;-74
2023/04/10 11:53:48;;;;;;;;;;;;;;;22.23;26.38;97814.09;5079345;28;1376;-76
2023/04/10 11:56:14;;;;;;;;;;;;;;;22.00;26.70;97809.50;5074640;28;1910;-75
2023/04/10 11:58:40;;;;;;;;;;;;;;;21.98;26.90;97806.34;5074154;28;1107;-75
2023/04/10 12:01:06;;;;;;;;;;;;;;;21.78;27.11;97804.50;5057501;28;1235;-75
2023/04/10 12:03:35;;;;;;;;;;;;;;;21.71;27.41;97803.91;5073846;28;965;-77
2023/04/10 12:06:01;;;;;;;;;;;;;;;21.62;27.34;97796.09;5040313;28;1244;-75
2023/04/10 12:08:30;;;;;;;;;;;;;;;21.67;27.47;97798.38;5057363;28;1093;-75
2023/04/10 12:10:56;;;;;;;;;;;;;;;21.55;27.61;97791.47;5040398;28;1331;-75
2023/04/10 12:13:25;;;;;;;;;;;;;;;21.71;27.67;97793.41;5053695;28;1030;-74
2023/04/10 12:15:51;;;;;;;;;;;;;;;22.13;26.84;97790.53;5053805;28;1907;-75
2023/04/10 12:18:16;;;;;;;;;;;;;;;22.39;26.71;97784.84;5020876;28;1135;-75
2023/04/10 12:20:43;;;;;;;;;;;;;;;22.06;26.90;97785.03;5037402;28;986;-75
2023/04/10 12:23:08;;;;;;;;;;;;;;;21.79;27.23;97789.09;5053933;28;989;-75
2023/04/10 12:25:34;;;;;;;;;;;;;;;21.91;26.98;97781.06;5037175;28;1013;-75
2023/04/10 12:28:00;;;;;;;;;;;;;;;21.71;27.31;97773.59;5020728;28;1126;-75
2023/04/10 12:30:25;;;;;;;;;;;;;;;21.74;27.08;97781.16;5070287;28;1012;-74
2023/04/10 12:32:53;;;;;;;;;;;;;;;21.63;27.65;97775.03;5070365;28;936;-75
2023/04/10 12:35:19;;;;;;;;;;;;;;;21.87;27.46;97769.06;5069733;28;1972;-75
2023/04/10 12:37:47;;;;;;;;;;;;;;;22.05;27.28;97755.13;5053395;28;1046;-75
2023/04/10 12:40:13;;;;;;;;;;;;;;;22.48;26.31;97753.72;5036664;28;1018;-74
2023/04/10 12:42:39;;;;;;;;;;;;;;;22.46;26.32;97756.22;5036632;28;1013;-75
2023/04/10 12:45:08;;;;;;;;;;;;;;;22.02;26.95;97751.16;5036839;28;1156;-75
2023/04/10 12:47:41;;;;;;;;;;;;;;;21.67;27.21;97758.75;5013342;28;1005;-75
2023/04/10 12:50:07;;;;;;;;;;;;;;;21.27;27.85;97759.09;5001790;28;1252;-75
2023/04/10 12:52:33;;;;;;;;;;;;;;;21.92;27.20;97745.84;5033068;28;1012;-75
2023/04/10 12:55:11;;;;;;;;;;;;;;;22.39;26.46;97747.97;5017134;28;1965;-73
2023/04/10 12:57:37;;;;;;;;;;;;;;;22.18;26.67;97736.09;5017483;28;1533;-73
2023/04/10 13:00:08;;;;;;;;;;;;;;;21.89;27.09;97733.38;5005772;28;1551;-74
2023/04/10 13:02:36;;;;;;;;;;;;;;;21.80;27.03;97727.59;5017014;28;1009;-75
2023/04/10 13:05:02;;;;;;;;;;;;;;;21.58;27.56;97733.91;5017077;28;1666;-74
2023/04/10 13:07:28;;;;;;;;;;;;;;;21.44;27.74;97733.56;5033433;28;1020;-73
2023/04/10 13:09:54;;;;;;;;;;;;;;;21.53;27.72;97736.53;5016869;28;1116;-74
2023/04/10 13:12:19;;;;;;;;;;;;;;;22.23;26.96;97727.03;5033177;28;957;-74